Time;durP1;ratioP1;P1;durP2;ratioP2;P2;SDS_P1;SDS_P2;PMS_P1;PMS_P2;Temp;Humidity;BMP_temperature;BMP_pressure;BME280_temperature;BME280_humidity;BME280_pressure;Samples;Min_cycle;Max_cycle;Signal;HPM_P1;HPM_P2
2021/11/22 00:04:14;;;;;;;26.57;10.40;;;;;;;6.75;100.00;99962.75;31011352;28;20138;-75
2021/11/22 00:19:16;;;;;;;24.23;11.07;;;;;;;6.91;100.00;99949.53;31040563;28;20420;-78
2021/11/22 00:34:19;;;;;;;30.63;11.83;;;;;;;6.96;100.00;99941.00;31027474;28;20050;-78
2021/11/22 00:49:21;;;;;;;38.00;14.53;;;;;;;7.13;100.00;99953.59;31041934;28;20054;-76
2021/11/22 01:04:23;;;;;;;22.70;9.60;;;;;;;7.17;100.00;99951.63;31021300;28;20057;-77
2021/11/22 01:19:25;;;;;;;30.97;11.23;;;;;;;7.17;100.00;99946.25;31008337;28;20050;-77
2021/11/22 01:34:28;;;;;;;31.60;10.90;;;;;;;7.16;100.00;99950.09;31012245;28;20391;-77
2021/11/22 01:49:30;;;;;;;30.47;10.87;;;;;;;7.11;100.00;99937.03;31046935;28;20077;-78
2021/11/22 02:04:33;;;;;;;35.80;13.93;;;;;;;6.98;100.00;99933.28;31009787;28;20050;-76
2021/11/22 02:19:51;;;;;;;35.37;13.83;;;;;;;6.93;100.00;99947.19;31011724;28;20480;-78
2021/11/22 02:34:53;;;;;;;35.00;12.77;;;;;;;6.98;100.00;99946.00;31007038;28;20141;-75
2021/11/22 02:49:55;;;;;;;33.40;14.10;;;;;;;7.02;100.00;99971.06;31099351;28;20137;-77
2021/11/22 03:04:57;;;;;;;30.07;12.67;;;;;;;7.08;100.00;99964.06;31024623;28;20432;-75
2021/11/22 03:19:59;;;;;;;37.97;15.33;;;;;;;7.10;100.00;99964.41;30980314;28;20141;-76
2021/11/22 03:35:02;;;;;;;41.87;15.17;;;;;;;7.25;100.00;99978.59;31016188;28;20493;-78
2021/11/22 03:50:06;;;;;;;38.77;16.00;;;;;;;7.16;100.00;99985.19;31038831;28;20056;-77
2021/11/22 04:05:09;;;;;;;47.17;17.67;;;;;;;7.19;100.00;99970.91;31012898;28;20074;-77
2021/11/22 04:20:11;;;;;;;38.47;16.13;;;;;;;7.37;100.00;99991.59;30991898;28;20441;-77
2021/11/22 04:35:15;;;;;;;38.90;15.57;;;;;;;7.39;100.00;99989.25;30987876;28;20073;-77
2021/11/22 04:50:18;;;;;;;38.43;15.73;;;;;;;7.36;100.00;100003.56;31019863;28;20042;-77
2021/11/22 05:05:20;;;;;;;35.03;16.97;;;;;;;7.38;100.00;100039.03;31053807;28;20129;-77
2021/11/22 05:20:22;;;;;;;38.63;14.87;;;;;;;7.39;100.00;100049.44;30989123;28;20129;-78
2021/11/22 05:35:26;;;;;;;32.37;14.10;;;;;;;7.37;100.00;100061.81;30980570;28;20090;-78
2021/11/22 05:50:52;;;;;;;39.00;15.13;;;;;;;7.56;100.00;100096.38;31010690;28;20050;-79
2021/11/22 06:05:54;;;;;;;35.17;15.27;;;;;;;7.53;100.00;100102.59;31060442;28;20110;-77
2021/11/22 06:20:56;;;;;;;37.00;14.97;;;;;;;7.61;100.00;100098.66;30996598;28;20061;-78
2021/11/22 06:35:58;;;;;;;39.07;16.10;;;;;;;7.57;100.00;100114.13;30996796;28;20050;-75
2021/11/22 06:51:00;;;;;;;40.00;15.80;;;;;;;7.50;100.00;100104.16;31012256;28;20043;-77
2021/11/22 07:06:04;;;;;;;37.80;14.83;;;;;;;7.62;100.00;100119.13;31024819;28;20090;-78
2021/11/22 07:21:06;;;;;;;38.30;16.00;;;;;;;7.69;100.00;100116.38;31022956;28;20053;-77
2021/11/22 07:36:08;;;;;;;44.07;16.47;;;;;;;7.69;100.00;100132.56;31016022;28;20057;-77
2021/11/22 07:51:10;;;;;;;47.33;16.27;;;;;;;7.84;100.00;100144.81;31005833;28;20078;-76
2021/11/22 08:06:12;;;;;;;42.23;15.87;;;;;;;7.92;100.00;100144.75;31017008;28;20141;-79
2021/11/22 08:21:14;;;;;;;37.73;13.87;;;;;;;8.07;100.00;100140.75;31012940;28;20137;-80
2021/11/22 08:36:16;;;;;;;32.27;14.33;;;;;;;8.22;100.00;100131.34;30992115;28;20057;-78
2021/11/22 08:51:19;;;;;;;39.40;15.67;;;;;;;8.36;100.00;100133.94;31016063;28;20057;-77
2021/11/22 09:06:21;;;;;;;37.63;16.70;;;;;;;8.38;100.00;100122.72;31003515;28;20133;-78
2021/11/22 09:21:29;;;;;;;44.77;14.83;;;;;;;8.50;100.00;100128.38;31066313;28;20050;-79
2021/11/22 09:36:31;;;;;;;38.37;15.97;;;;;;;8.58;100.00;100125.59;31027224;28;20108;-79
2021/11/22 09:51:34;;;;;;;38.40;16.43;;;;;;;8.81;100.00;100117.59;31068933;28;20181;-80
2021/11/22 10:07:01;;;;;;;34.00;15.50;;;;;;;8.96;100.00;100118.97;31017973;28;20137;-77
2021/11/22 10:22:17;;;;;;;47.90;18.67;;;;;;;9.14;99.87;100135.75;31006586;28;20046;-76
2021/11/22 10:37:19;;;;;;;47.57;20.10;;;;;;;9.47;98.63;100130.63;31008914;28;20057;-78
2021/11/22 10:52:46;;;;;;;40.47;18.23;;;;;;;9.83;98.17;100120.78;31018726;28;20514;-80
2021/11/22 11:07:46;;;;;;;40.23;18.60;;;;;;;9.54;95.16;100122.41;31021793;28;20148;-78
2021/11/22 11:22:50;;;;;;;45.37;18.73;;;;;;;9.58;96.72;100121.19;31030371;28;20050;-79
2021/11/22 11:38:21;;;;;;;48.47;19.40;;;;;;;9.39;95.18;100129.97;31017659;28;20069;-77
2021/11/22 11:53:23;;;;;;;47.83;19.77;;;;;;;9.36;96.76;100130.03;30989887;28;20057;-78
2021/11/22 12:08:33;;;;;;;50.17;19.50;;;;;;;9.37;96.15;100136.97;31013142;28;20145;-79
2021/11/22 12:23:45;;;;;;;41.50;19.27;;;;;;;9.14;96.10;100145.81;30976326;28;20567;-78
2021/11/22 12:38:48;;;;;;;36.63;17.53;;;;;;;8.99;97.26;100147.91;31023298;28;20133;-77
2021/11/22 12:54:12;;;;;;;43.30;18.70;;;;;;;9.17;96.69;100145.00;31013706;28;20050;-78
2021/11/22 13:09:38;;;;;;;38.40;17.30;;;;;;;9.12;96.49;100143.50;31011467;28;20046;-78
2021/11/22 13:24:45;;;;;;;42.30;17.73;;;;;;;8.87;96.85;100148.47;31015838;28;20515;-78
2021/11/22 13:39:47;;;;;;;38.57;17.27;;;;;;;8.62;97.31;100161.50;30974923;28;20058;-77
2021/11/22 13:54:51;;;;;;;40.70;17.80;;;;;;;8.27;98.53;100166.06;31073963;28;20157;-78
2021/11/22 14:09:55;;;;;;;49.53;20.20;;;;;;;7.79;99.71;100180.38;30992221;28;20050;-78
2021/11/22 14:24:57;;;;;;;39.30;17.63;;;;;;;7.51;99.36;100177.88;31002239;28;20140;-77
2021/11/22 14:40:01;;;;;;;41.23;16.93;;;;;;;7.25;100.00;100181.84;31021073;28;20146;-77
2021/11/22 14:55:13;;;;;;;46.57;18.23;;;;;;;7.08;100.00;100190.81;31016677;28;20493;-77
2021/11/22 15:10:16;;;;;;;38.10;17.23;;;;;;;6.90;99.98;100217.84;31042125;28;20058;-78
2021/11/22 15:25:21;;;;;;;31.57;14.83;;;;;;;6.85;100.00;100227.09;31026333;28;20081;-79
2021/11/22 15:40:23;;;;;;;36.43;15.13;;;;;;;6.89;100.00;100242.53;31006048;28;20142;-77
2021/11/22 15:55:25;;;;;;;34.83;15.07;;;;;;;6.58;100.00;100257.63;31003461;28;20492;-76
2021/11/22 16:10:27;;;;;;;38.70;14.70;;;;;;;6.49;100.00;100253.38;30987684;28;20054;-79
2021/11/22 16:25:29;;;;;;;34.27;14.10;;;;;;;6.30;100.00;100259.16;31001007;28;20129;-79
2021/11/22 16:40:31;;;;;;;33.80;14.37;;;;;;;6.38;100.00;100278.78;30999933;28;20054;-79
2021/11/22 16:55:33;;;;;;;36.77;15.67;;;;;;;6.40;100.00;100282.66;30984822;28;20056;-81
2021/11/22 17:10:37;;;;;;;37.63;14.77;;;;;;;6.45;100.00;100284.97;31017855;28;20177;-79
2021/11/22 17:25:40;;;;;;;34.87;16.10;;;;;;;6.40;100.00;100288.03;31042858;28;20476;-78
2021/11/22 17:40:43;;;;;;;38.37;16.43;;;;;;;6.43;100.00;100294.59;30970225;28;20062;-81
2021/11/22 17:55:48;;;;;;;44.80;18.53;;;;;;;6.26;100.00;100288.06;31015469;28;20050;-78
2021/11/22 18:10:50;;;;;;;49.53;18.47;;;;;;;6.20;100.00;100284.19;30999924;28;20137;-77
2021/11/22 18:25:52;;;;;;;58.37;23.07;;;;;;;6.27;100.00;100283.44;31014118;28;21269;-78
2021/11/22 18:40:54;;;;;;;51.83;20.17;;;;;;;6.20;100.00;100289.56;31008436;28;20072;-79
2021/11/22 18:55:56;;;;;;;63.97;27.33;;;;;;;6.28;100.00;100312.72;30991193;28;20053;-81
2021/11/22 19:10:58;;;;;;;61.67;25.13;;;;;;;6.61;100.00;100308.88;30999324;28;20137;-79
2021/11/22 19:26:00;;;;;;;57.33;24.13;;;;;;;6.68;100.00;100295.38;30984441;28;20059;-79
2021/11/22 19:41:04;;;;;;;66.63;25.57;;;;;;;6.63;100.00;100305.78;31002672;28;20489;-80
2021/11/22 19:56:06;;;;;;;65.20;23.60;;;;;;;6.75;100.00;100308.09;31007042;28;20048;-82
2021/11/22 20:11:15;;;;;;;56.10;24.47;;;;;;;6.91;100.00;100326.56;31002675;28;20137;-81
2021/11/22 20:26:25;;;;;;;63.50;26.10;;;;;;;6.73;99.85;100321.19;31014869;28;20085;-81
2021/11/22 20:41:27;;;;;;;67.70;25.80;;;;;;;6.77;100.00;100308.47;31032915;28;20085;-76
2021/11/22 20:56:30;;;;;;;58.07;23.63;;;;;;;6.73;100.00;100308.47;30899832;28;20085;-81
2021/11/22 21:11:32;;;;;;;56.17;23.97;;;;;;;6.60;100.00;100317.34;31007818;28;20093;-79
2021/11/22 21:26:42;;;;;;;71.77;26.47;;;;;;;6.58;100.00;100327.75;31003955;28;20141;-80
2021/11/22 21:41:46;;;;;;;60.60;24.73;;;;;;;6.57;100.00;100334.31;30987305;28;20081;-79
2021/11/22 21:56:50;;;;;;;55.20;23.57;;;;;;;6.61;100.00;100329.69;30989646;28;20138;-79
2021/11/22 22:11:56;;;;;;;58.37;23.50;;;;;;;6.62;100.00;100323.88;31029087;28;20055;-78
2021/11/22 22:27:00;;;;;;;52.50;20.30;;;;;;;6.61;100.00;100318.91;30986192;28;20058;-80
2021/11/22 22:42:04;;;;;;;54.33;22.53;;;;;;;6.63;100.00;100343.53;31038787;28;20053;-78
2021/11/22 22:57:07;;;;;;;54.13;21.90;;;;;;;6.57;100.00;100345.88;31048469;28;20053;-79
2021/11/22 23:12:09;;;;;;;37.53;16.03;;;;;;;6.54;100.00;100348.56;31000265;28;20137;-79
2021/11/22 23:27:17;;;;;;;23.87;10.10;;;;;;;6.32;98.01;100353.16;31024470;28;20060;-80
2021/11/22 23:42:21;;;;;;;18.03;8.17;;;;;;;6.18;98.44;100361.97;30983949;28;20070;-78
2021/11/22 23:57:23;;;;;;;12.33;6.47;;;;;;;6.05;97.06;100374.28;31002883;28;20081;-79
